createdAt,value
2022-10-25T00:00:49.300Z,100.00
2022-10-25T00:03:18.620Z,100.00
2022-10-25T00:05:46.457Z,100.00
2022-10-25T00:08:14.309Z,100.00
2022-10-25T00:10:42.158Z,100.00
2022-10-25T00:13:10.008Z,100.00
2022-10-25T00:15:37.828Z,100.00
2022-10-25T00:18:05.840Z,100.00
2022-10-25T00:20:37.088Z,100.00
2022-10-25T00:23:04.932Z,100.00
2022-10-25T00:25:32.763Z,100.00
2022-10-25T00:28:00.660Z,100.00
2022-10-25T00:30:28.630Z,100.00
2022-10-25T00:32:56.466Z,100.00
2022-10-25T00:35:24.585Z,100.00
2022-10-25T00:37:53.802Z,100.00
2022-10-25T00:40:21.699Z,100.00
2022-10-25T00:42:49.715Z,100.00
2022-10-25T00:45:23.091Z,100.00
2022-10-25T00:47:57.486Z,100.00
2022-10-25T00:50:47.046Z,100.00
2022-10-25T00:53:21.561Z,100.00
2022-10-25T00:55:55.418Z,100.00
2022-10-25T00:58:29.222Z,100.00
2022-10-25T01:00:57.737Z,100.00
2022-10-25T01:03:26.303Z,100.00
2022-10-25T01:05:54.944Z,100.00
2022-10-25T01:08:25.131Z,100.00
2022-10-25T01:10:52.953Z,100.00
2022-10-25T01:13:20.881Z,100.00
2022-10-25T01:15:58.084Z,100.00
2022-10-25T01:18:35.143Z,100.00
2022-10-25T01:21:23.464Z,100.00
2022-10-25T01:24:16.263Z,100.00
2022-10-25T01:27:11.757Z,100.00
2022-10-25T01:30:04.736Z,100.00
2022-10-25T01:32:41.351Z,100.00
2022-10-25T01:35:17.356Z,100.00
2022-10-25T01:38:07.344Z,100.00
2022-10-25T01:40:44.061Z,100.00
2022-10-25T01:43:21.184Z,100.00
2022-10-25T01:45:58.357Z,100.00
2022-10-25T01:48:32.792Z,100.00
2022-10-25T01:51:06.972Z,100.00
2022-10-25T01:53:34.855Z,100.00
2022-10-25T01:56:06.600Z,100.00
2022-10-25T01:58:43.911Z,100.00
2022-10-25T02:01:24.842Z,100.00
2022-10-25T02:04:01.031Z,100.00
2022-10-25T02:06:35.822Z,100.00
2022-10-25T02:09:07.905Z,100.00
2022-10-25T02:11:36.785Z,100.00
2022-10-25T02:14:16.252Z,100.00
2022-10-25T02:16:50.518Z,100.00
2022-10-25T02:19:24.750Z,100.00
2022-10-25T02:21:53.973Z,100.00
2022-10-25T02:24:24.168Z,100.00
2022-10-25T02:26:53.731Z,100.00
2022-10-25T02:29:23.887Z,100.00
2022-10-25T02:31:51.938Z,100.00
2022-10-25T02:34:21.467Z,100.00
2022-10-25T02:36:49.920Z,100.00
2022-10-25T02:39:18.672Z,100.00
2022-10-25T02:41:46.518Z,100.00
2022-10-25T02:44:14.720Z,100.00
2022-10-25T02:46:42.604Z,100.00
2022-10-25T02:49:10.504Z,100.00
2022-10-25T02:51:39.977Z,100.00
2022-10-25T02:54:07.854Z,100.00
2022-10-25T02:56:35.692Z,100.00
2022-10-25T02:59:03.544Z,100.00
2022-10-25T03:01:31.514Z,100.00
2022-10-25T03:03:59.539Z,100.00
2022-10-25T03:06:27.339Z,100.00
2022-10-25T03:08:56.528Z,100.00
2022-10-25T03:11:24.380Z,100.00
2022-10-25T03:13:52.211Z,100.00
2022-10-25T03:16:20.059Z,100.00
2022-10-25T03:18:48.033Z,100.00
2022-10-25T03:21:15.866Z,100.00
2022-10-25T03:23:43.657Z,100.00
2022-10-25T03:26:12.880Z,100.00
2022-10-25T03:28:40.739Z,100.00
2022-10-25T03:31:13.161Z,100.00
2022-10-25T03:33:41.695Z,100.00
2022-10-25T03:36:10.091Z,100.00
2022-10-25T03:38:38.100Z,100.00
2022-10-25T03:41:06.261Z,100.00
2022-10-25T03:43:35.462Z,100.00
2022-10-25T03:46:03.426Z,100.00
2022-10-25T03:48:31.311Z,100.00
2022-10-25T03:50:59.248Z,100.00
2022-10-25T03:53:27.088Z,100.00
2022-10-25T03:55:54.924Z,100.00
2022-10-25T03:58:22.795Z,100.00
2022-10-25T04:00:52.025Z,100.00
2022-10-25T04:03:19.927Z,100.00
2022-10-25T04:05:47.752Z,100.00
2022-10-25T04:08:15.637Z,100.00
2022-10-25T04:10:43.483Z,100.00
2022-10-25T04:13:11.321Z,100.00
2022-10-25T04:15:39.245Z,100.00
2022-10-25T04:18:08.606Z,100.00
2022-10-25T04:20:36.464Z,100.00
2022-10-25T04:23:04.320Z,100.00
2022-10-25T04:25:32.369Z,100.00
2022-10-25T04:28:00.620Z,100.00
2022-10-25T04:30:28.633Z,100.00
2022-10-25T04:32:58.296Z,100.00
2022-10-25T04:35:27.507Z,100.00
2022-10-25T04:37:58.317Z,100.00
2022-10-25T04:40:26.457Z,100.00
2022-10-25T04:42:54.319Z,100.00
2022-10-25T04:45:22.158Z,100.00
2022-10-25T04:47:49.975Z,100.00
2022-10-25T04:50:18.002Z,100.00
2022-10-25T04:52:47.609Z,100.00
2022-10-25T04:55:15.794Z,100.00
2022-10-25T04:57:44.684Z,100.00
2022-10-25T05:00:13.496Z,100.00
2022-10-25T05:02:41.354Z,100.00
2022-10-25T05:05:09.976Z,100.00
2022-10-25T05:07:37.824Z,100.00
2022-10-25T05:10:07.672Z,100.00
2022-10-25T05:12:35.527Z,100.00
2022-10-25T05:15:03.414Z,100.00
2022-10-25T05:17:31.324Z,100.00
2022-10-25T05:19:59.319Z,100.00
2022-10-25T05:22:29.256Z,100.00
2022-10-25T05:24:57.116Z,100.00
2022-10-25T05:27:26.465Z,100.00
2022-10-25T05:29:54.325Z,100.00
2022-10-25T05:32:22.218Z,100.00
2022-10-25T05:34:50.051Z,100.00
2022-10-25T05:37:17.922Z,100.00
2022-10-25T05:39:45.853Z,100.00
2022-10-25T05:42:13.676Z,100.00
2022-10-25T05:44:42.884Z,100.00
2022-10-25T05:47:10.794Z,100.00
2022-10-25T05:49:42.337Z,100.00
2022-10-25T05:52:12.363Z,100.00
2022-10-25T05:54:40.251Z,100.00
2022-10-25T05:57:08.085Z,100.00
2022-10-25T05:59:36.015Z,100.00
2022-10-25T06:02:05.353Z,100.00
2022-10-25T06:04:33.341Z,100.00
2022-10-25T06:07:01.232Z,100.00
2022-10-25T06:09:29.168Z,100.00
2022-10-25T06:11:57.021Z,100.00
2022-10-25T06:14:24.856Z,100.00
2022-10-25T06:16:52.712Z,100.00
2022-10-25T06:19:21.961Z,100.00
2022-10-25T06:21:49.893Z,100.00
2022-10-25T06:24:17.768Z,100.00
2022-10-25T06:26:45.642Z,98.14
2022-10-25T06:29:13.681Z,97.28
2022-10-25T06:31:41.694Z,98.58
2022-10-25T06:34:09.644Z,97.10
2022-10-25T06:36:39.024Z,94.25
2022-10-25T06:39:07.165Z,94.54
2022-10-25T06:41:37.686Z,92.52
2022-10-25T06:44:07.197Z,89.23
2022-10-25T06:46:52.602Z,86.80
2022-10-25T06:49:25.303Z,85.96
2022-10-25T06:51:54.782Z,87.20
2022-10-25T06:54:22.646Z,86.89
2022-10-25T06:56:50.622Z,87.59
2022-10-25T06:59:20.389Z,87.40
2022-10-25T07:01:50.080Z,87.90
2022-10-25T07:04:18.185Z,86.85
2022-10-25T07:06:48.806Z,83.47
2022-10-25T07:09:20.922Z,82.62
2022-10-25T07:11:48.767Z,81.65
2022-10-25T07:14:16.776Z,81.88
2022-10-25T07:16:44.717Z,81.77
2022-10-25T07:19:12.763Z,80.04
2022-10-25T07:21:40.615Z,76.90
2022-10-25T07:24:11.140Z,77.28
2022-10-25T07:26:40.918Z,76.12
2022-10-25T07:29:09.163Z,75.26
2022-10-25T07:31:39.672Z,73.08
2022-10-25T07:34:07.915Z,70.66
2022-10-25T07:36:35.782Z,69.96
2022-10-25T07:39:03.915Z,68.93
2022-10-25T07:41:31.837Z,68.35
2022-10-25T07:44:01.039Z,68.95
2022-10-25T07:46:28.933Z,68.09
2022-10-25T07:48:56.819Z,67.35
2022-10-25T07:51:25.068Z,67.49
2022-10-25T07:53:54.449Z,67.15
2022-10-25T07:56:23.681Z,67.31
2022-10-25T07:58:52.275Z,66.19
2022-10-25T08:01:23.806Z,63.82
2022-10-25T08:03:52.536Z,61.79
2022-10-25T08:06:21.781Z,61.73
2022-10-25T08:08:50.146Z,60.62
2022-10-25T08:11:18.925Z,60.05
2022-10-25T08:13:49.850Z,59.96
2022-10-25T08:16:18.367Z,59.99
2022-10-25T08:18:47.603Z,59.81
2022-10-25T08:21:15.556Z,58.51
2022-10-25T08:23:43.451Z,57.79
2022-10-25T08:26:11.429Z,57.10
2022-10-25T08:28:39.265Z,58.16
2022-10-25T08:31:07.287Z,58.78
2022-10-25T08:33:35.343Z,59.22
2022-10-25T08:36:04.812Z,57.68
2022-10-25T08:38:32.664Z,57.71
2022-10-25T08:41:10.205Z,56.64
2022-10-25T08:44:08.851Z,56.05
2022-10-25T08:46:41.942Z,55.39
2022-10-25T08:49:20.323Z,54.69
2022-10-25T08:51:51.758Z,54.74
2022-10-25T08:54:31.873Z,53.48
2022-10-25T08:57:15.446Z,53.80
2022-10-25T08:59:46.744Z,55.68
2022-10-25T09:02:21.064Z,55.08
2022-10-25T09:04:49.117Z,53.15
2022-10-25T09:07:41.969Z,52.92
2022-10-25T09:10:19.345Z,50.95
2022-10-25T09:12:55.285Z,51.73
2022-10-25T09:15:43.252Z,49.59
2022-10-25T09:18:16.926Z,49.11
2022-10-25T09:20:50.824Z,49.89
2022-10-25T09:23:28.011Z,48.94
2022-10-25T09:26:04.100Z,49.19
2022-10-25T09:28:50.596Z,48.20
2022-10-25T09:31:23.360Z,47.71
2022-10-25T09:33:58.890Z,47.57
2022-10-25T09:36:33.059Z,47.51
2022-10-25T09:39:06.884Z,46.96
2022-10-25T09:41:41.221Z,47.18
2022-10-25T09:44:16.829Z,46.82
2022-10-25T09:46:49.129Z,46.68
2022-10-25T09:49:26.119Z,45.91
2022-10-25T09:52:00.731Z,46.53
2022-10-25T09:54:34.007Z,46.20
2022-10-25T09:57:02.114Z,45.71
2022-10-25T09:59:30.089Z,46.08
2022-10-25T10:01:58.094Z,45.30
2022-10-25T10:04:34.193Z,46.11
2022-10-25T10:07:07.484Z,46.26
2022-10-25T10:09:43.356Z,46.34
2022-10-25T10:12:20.672Z,46.08
2022-10-25T10:14:55.069Z,45.48
2022-10-25T10:17:24.299Z,45.78
2022-10-25T10:20:11.295Z,46.70
2022-10-25T10:22:45.622Z,46.84
2022-10-25T10:25:20.860Z,46.75
2022-10-25T10:27:50.476Z,46.30
2022-10-25T10:30:24.895Z,45.82
2022-10-25T10:32:58.756Z,46.21
2022-10-25T10:35:30.899Z,45.46
2022-10-25T10:38:25.029Z,45.66
2022-10-25T10:40:57.635Z,44.73
2022-10-25T10:43:30.054Z,44.34
2022-10-25T10:46:03.939Z,44.67
2022-10-25T10:48:41.888Z,44.79
2022-10-25T10:51:31.673Z,44.74
2022-10-25T10:54:12.676Z,44.06
2022-10-25T10:56:41.953Z,43.49
2022-10-25T10:59:29.359Z,43.57
2022-10-25T11:01:57.593Z,42.73
2022-10-25T11:04:26.389Z,43.04
2022-10-25T11:06:54.309Z,43.35
2022-10-25T11:09:25.437Z,43.18
2022-10-25T11:12:15.484Z,42.51
2022-10-25T11:14:43.939Z,42.32
2022-10-25T11:17:16.995Z,42.11
2022-10-25T11:19:54.467Z,40.90
2022-10-25T11:22:34.744Z,42.04
2022-10-25T11:25:17.394Z,42.05
2022-10-25T11:28:06.398Z,42.25
2022-10-25T11:30:41.192Z,42.41
2022-10-25T11:33:34.854Z,42.12
2022-10-25T11:36:23.975Z,41.32
2022-10-25T11:39:15.108Z,40.72
2022-10-25T11:41:48.717Z,40.50
2022-10-25T11:44:41.697Z,39.47
2022-10-25T11:47:19.321Z,38.76
2022-10-25T11:49:59.638Z,39.17
2022-10-25T11:52:54.450Z,38.93
2022-10-25T11:55:34.257Z,38.65
2022-10-25T11:58:11.382Z,38.70
2022-10-25T12:00:51.259Z,37.57
2022-10-25T12:03:32.485Z,36.74
2022-10-25T12:06:07.041Z,37.90
2022-10-25T12:08:43.019Z,38.00
2022-10-25T12:11:18.726Z,38.68
2022-10-25T12:13:51.626Z,37.41
2022-10-25T12:16:23.087Z,37.54
2022-10-25T12:18:53.714Z,37.06
2022-10-25T12:21:27.169Z,35.62
2022-10-25T12:23:56.186Z,36.00
2022-10-25T12:26:31.075Z,35.33
2022-10-25T12:29:01.747Z,35.63
2022-10-25T12:31:37.779Z,35.84
2022-10-25T12:34:10.216Z,34.71
2022-10-25T12:36:41.738Z,34.45
2022-10-25T12:39:17.615Z,34.21
2022-10-25T12:41:49.936Z,33.45
2022-10-25T12:44:33.868Z,33.53
2022-10-25T12:47:25.570Z,33.35
2022-10-25T12:50:14.706Z,32.99
2022-10-25T12:53:00.660Z,33.26
2022-10-25T12:55:42.005Z,34.08
2022-10-25T12:58:28.093Z,34.56
2022-10-25T13:01:11.215Z,34.03
2022-10-25T13:03:59.552Z,33.91
2022-10-25T13:06:34.653Z,33.42
2022-10-25T13:09:06.768Z,33.40
2022-10-25T13:11:38.321Z,33.29
2022-10-25T13:14:14.011Z,33.14
2022-10-25T13:16:41.843Z,33.48
2022-10-25T13:19:49.889Z,33.46
2022-10-25T13:22:46.824Z,34.08
2022-10-25T13:25:19.638Z,35.12
2022-10-25T13:28:21.361Z,35.56
2022-10-25T13:30:49.264Z,35.74
2022-10-25T13:33:33.763Z,35.74
2022-10-25T13:36:05.951Z,36.09
2022-10-25T13:38:39.644Z,36.74
2022-10-25T13:41:13.259Z,36.14
2022-10-25T13:44:02.220Z,36.35
2022-10-25T13:46:36.367Z,36.62
2022-10-25T13:49:23.410Z,36.65
2022-10-25T13:51:56.152Z,36.48
2022-10-25T13:54:24.804Z,36.29
2022-10-25T13:56:54.600Z,37.02
2022-10-25T13:59:38.612Z,37.21
2022-10-25T14:02:18.443Z,37.46
2022-10-25T14:04:46.671Z,38.01
2022-10-25T14:07:48.914Z,38.18
2022-10-25T14:10:36.082Z,37.74
2022-10-25T14:13:17.315Z,38.28
2022-10-25T14:15:53.411Z,38.05
2022-10-25T14:18:24.138Z,38.02
2022-10-25T14:20:55.449Z,37.57
2022-10-25T14:23:29.881Z,37.65
2022-10-25T14:25:59.521Z,38.42
2022-10-25T14:28:29.253Z,38.43
2022-10-25T14:30:59.242Z,38.78
2022-10-25T14:33:31.328Z,38.45
2022-10-25T14:36:09.906Z,38.70
2022-10-25T14:38:52.352Z,38.98
2022-10-25T14:41:25.747Z,38.29
2022-10-25T14:43:54.309Z,38.06
2022-10-25T14:46:24.157Z,38.26
2022-10-25T14:48:56.057Z,38.10
2022-10-25T14:51:28.069Z,38.15
2022-10-25T14:54:01.348Z,38.71
2022-10-25T14:56:32.917Z,38.39
2022-10-25T14:59:02.273Z,38.79
2022-10-25T15:01:30.540Z,38.21
2022-10-25T15:04:01.254Z,38.44
2022-10-25T15:06:32.418Z,38.23
2022-10-25T15:09:40.800Z,38.66
2022-10-25T15:12:08.355Z,38.33
2022-10-25T15:14:36.815Z,38.25
2022-10-25T15:17:06.262Z,39.07
2022-10-25T15:19:34.173Z,38.64
2022-10-25T15:22:10.784Z,38.74
2022-10-25T15:24:48.743Z,38.78
2022-10-25T15:27:27.902Z,38.85
2022-10-25T15:29:55.869Z,38.87
2022-10-25T15:32:25.439Z,39.61
2022-10-25T15:34:55.648Z,39.39
2022-10-25T15:37:25.131Z,39.32
2022-10-25T15:39:55.749Z,39.49
2022-10-25T15:42:26.411Z,39.70
2022-10-25T15:44:54.310Z,40.57
2022-10-25T15:47:31.741Z,41.18
2022-10-25T15:50:00.671Z,41.71
2022-10-25T15:52:29.032Z,42.24
2022-10-25T15:54:58.245Z,42.08
2022-10-25T15:57:27.355Z,41.53
2022-10-25T15:59:55.349Z,41.22
2022-10-25T16:02:27.172Z,41.69
2022-10-25T16:04:55.240Z,41.86
2022-10-25T16:07:23.223Z,41.45
2022-10-25T16:09:51.060Z,41.35
2022-10-25T16:12:31.587Z,41.58
2022-10-25T16:14:59.508Z,41.73
2022-10-25T16:17:27.332Z,41.70
2022-10-25T16:19:55.155Z,42.28
2022-10-25T16:22:22.996Z,42.66
2022-10-25T16:24:50.836Z,42.94
2022-10-25T16:27:18.800Z,43.09
2022-10-25T16:29:48.122Z,44.01
2022-10-25T16:32:18.542Z,43.86
2022-10-25T16:34:46.383Z,44.15
2022-10-25T16:37:14.205Z,44.41
2022-10-25T16:39:42.064Z,44.66
2022-10-25T16:42:28.569Z,45.03
2022-10-25T16:44:58.421Z,45.56
2022-10-25T16:47:26.623Z,45.56
2022-10-25T16:49:54.675Z,46.00
2022-10-25T16:52:23.102Z,46.25
2022-10-25T16:54:50.936Z,45.79
2022-10-25T16:57:18.852Z,46.24
2022-10-25T16:59:46.723Z,46.12
2022-10-25T17:02:21.334Z,46.13
2022-10-25T17:04:50.261Z,45.99
2022-10-25T17:07:18.748Z,46.58
2022-10-25T17:09:46.676Z,46.73
2022-10-25T17:12:14.524Z,46.33
2022-10-25T17:14:42.421Z,46.00
2022-10-25T17:17:11.009Z,46.55
2022-10-25T17:19:40.279Z,46.94
2022-10-25T17:22:08.922Z,47.69
2022-10-25T17:24:37.610Z,47.36
2022-10-25T17:27:06.241Z,47.96
2022-10-25T17:29:34.275Z,47.94
2022-10-25T17:32:02.173Z,48.30
2022-10-25T17:34:32.114Z,48.26
2022-10-25T17:37:02.300Z,49.10
2022-10-25T17:39:30.598Z,49.09
2022-10-25T17:41:58.473Z,48.95
2022-10-25T17:44:26.360Z,50.05
2022-10-25T17:46:55.494Z,49.72
2022-10-25T17:49:25.164Z,51.41
2022-10-25T17:51:53.035Z,51.66
2022-10-25T17:54:22.436Z,52.02
2022-10-25T17:56:50.359Z,51.64
2022-10-25T17:59:18.242Z,52.00
2022-10-25T18:01:46.202Z,51.53
2022-10-25T18:04:14.121Z,52.20
2022-10-25T18:06:42.059Z,52.93
2022-10-25T18:09:10.874Z,53.63
2022-10-25T18:11:40.219Z,53.52
2022-10-25T18:14:08.101Z,54.17
2022-10-25T18:16:35.940Z,53.78
2022-10-25T18:19:05.830Z,54.92
2022-10-25T18:21:34.740Z,55.45
2022-10-25T18:24:04.901Z,55.54
2022-10-25T18:26:33.801Z,55.52
2022-10-25T18:29:03.070Z,56.01
2022-10-25T18:31:31.097Z,56.53
2022-10-25T18:34:03.381Z,56.97
2022-10-25T18:36:32.103Z,57.50
2022-10-25T18:39:00.025Z,57.79
2022-10-25T18:41:30.149Z,58.43
2022-10-25T18:43:58.805Z,59.04
2022-10-25T18:46:30.739Z,59.27
2022-10-25T18:48:58.835Z,59.51
2022-10-25T18:51:28.911Z,59.84
2022-10-25T18:53:57.817Z,59.83
2022-10-25T18:56:26.212Z,60.33
2022-10-25T18:58:56.763Z,60.40
2022-10-25T19:01:27.921Z,60.36
2022-10-25T19:03:58.199Z,60.62
2022-10-25T19:06:26.416Z,60.74
2022-10-25T19:08:54.608Z,60.87
2022-10-25T19:11:22.511Z,60.85
2022-10-25T19:13:54.178Z,61.23
2022-10-25T19:16:22.226Z,60.94
2022-10-25T19:18:50.135Z,61.71
2022-10-25T19:21:19.695Z,62.06
2022-10-25T19:23:48.435Z,62.15
2022-10-25T19:26:19.458Z,62.22
2022-10-25T19:28:47.672Z,62.75
2022-10-25T19:31:17.916Z,63.14
2022-10-25T19:33:47.044Z,63.80
2022-10-25T19:36:15.107Z,63.93
2022-10-25T19:38:45.294Z,63.89
2022-10-25T19:41:17.135Z,64.43
2022-10-25T19:43:45.116Z,64.79
2022-10-25T19:46:14.089Z,64.65
2022-10-25T19:48:42.045Z,64.98
2022-10-25T19:51:12.097Z,65.37
2022-10-25T19:53:39.995Z,65.69
2022-10-25T19:56:11.421Z,65.83
2022-10-25T19:58:39.552Z,66.12
2022-10-25T20:01:10.229Z,66.36
2022-10-25T20:03:39.591Z,66.69
2022-10-25T20:06:09.983Z,67.28
2022-10-25T20:08:39.875Z,67.59
2022-10-25T20:11:11.596Z,68.17
2022-10-25T20:13:39.720Z,68.86
2022-10-25T20:16:08.699Z,69.89
2022-10-25T20:18:38.693Z,69.94
2022-10-25T20:21:08.859Z,70.69
2022-10-25T20:23:37.020Z,70.97
2022-10-25T20:26:14.335Z,71.10
2022-10-25T20:28:42.527Z,71.36
2022-10-25T20:31:11.258Z,71.88
2022-10-25T20:33:40.267Z,72.32
2022-10-25T20:36:11.513Z,72.50
2022-10-25T20:38:39.719Z,72.65
2022-10-25T20:41:10.270Z,73.05
2022-10-25T20:43:40.346Z,73.28
2022-10-25T20:46:09.400Z,73.47
2022-10-25T20:48:37.680Z,73.86
2022-10-25T20:51:07.811Z,74.64
2022-10-25T20:53:36.963Z,74.75
2022-10-25T20:56:05.268Z,75.14
2022-10-25T20:58:34.668Z,75.31
2022-10-25T21:01:04.192Z,75.72
2022-10-25T21:03:33.191Z,76.60
2022-10-25T21:06:03.489Z,77.60
2022-10-25T21:08:32.204Z,77.77
2022-10-25T21:11:01.992Z,78.24
2022-10-25T21:13:32.374Z,78.76
2022-10-25T21:16:00.547Z,79.64
2022-10-25T21:18:30.160Z,79.60
2022-10-25T21:21:01.747Z,80.05
2022-10-25T21:23:29.624Z,80.24
2022-10-25T21:26:00.738Z,80.53
2022-10-25T21:28:32.408Z,80.70
2022-10-25T21:31:02.117Z,81.03
2022-10-25T21:33:31.334Z,81.32
2022-10-25T21:36:03.776Z,82.39
2022-10-25T21:38:31.684Z,82.88
2022-10-25T21:41:06.748Z,83.22
2022-10-25T21:43:34.625Z,83.83
2022-10-25T21:46:05.930Z,83.45
2022-10-25T21:48:35.620Z,85.03
2022-10-25T21:51:03.471Z,85.19
2022-10-25T21:53:31.628Z,85.76
2022-10-25T21:56:11.530Z,86.30
2022-10-25T21:58:39.853Z,86.99
2022-10-25T22:01:09.324Z,87.10
2022-10-25T22:03:38.901Z,87.51
2022-10-25T22:06:07.776Z,88.18
2022-10-25T22:08:35.841Z,87.59
2022-10-25T22:11:06.955Z,87.84
2022-10-25T22:13:35.217Z,88.51
2022-10-25T22:16:05.651Z,88.31
2022-10-25T22:18:34.048Z,88.02
2022-10-25T22:21:05.941Z,88.31
2022-10-25T22:23:34.476Z,88.86
2022-10-25T22:26:03.593Z,89.08
2022-10-25T22:28:33.331Z,89.80
2022-10-25T22:31:06.515Z,89.96
2022-10-25T22:33:34.962Z,90.75
2022-10-25T22:36:05.991Z,91.07
2022-10-25T22:38:34.326Z,91.64
2022-10-25T22:41:03.702Z,91.42
2022-10-25T22:43:32.221Z,91.78
2022-10-25T22:46:02.271Z,91.80
2022-10-25T22:48:34.001Z,92.13
2022-10-25T22:51:02.321Z,91.93
2022-10-25T22:53:31.681Z,91.69
2022-10-25T22:56:01.852Z,91.78
2022-10-25T22:58:32.465Z,91.61
2022-10-25T23:03:36.986Z,91.81
2022-10-25T23:06:06.140Z,91.56
2022-10-25T23:08:35.544Z,91.39
2022-10-25T23:11:05.836Z,91.20
2022-10-25T23:13:36.322Z,91.13
2022-10-25T23:16:05.000Z,90.95
2022-10-25T23:18:33.381Z,91.05
2022-10-25T23:21:03.169Z,91.48
2022-10-25T23:23:38.120Z,91.97
2022-10-25T23:28:39.700Z,92.43
2022-10-25T23:31:09.343Z,92.60
2022-10-25T23:33:37.414Z,92.66
2022-10-25T23:36:10.226Z,93.03
2022-10-25T23:38:39.458Z,93.28
2022-10-25T23:41:07.645Z,93.31
2022-10-25T23:43:35.651Z,93.60
2022-10-25T23:46:03.612Z,93.45
2022-10-25T23:48:31.970Z,93.68
2022-10-25T23:53:34.999Z,93.83
2022-10-25T23:56:06.100Z,94.15
2022-10-25T23:58:33.999Z,94.23
